createdAt,value
2018-01-07T00:01:40.908Z,88.70
2018-01-07T00:06:43.292Z,88.70
2018-01-07T00:11:45.691Z,88.40
2018-01-07T00:16:47.915Z,88.20
2018-01-07T00:21:49.404Z,88.20
2018-01-07T00:26:50.994Z,87.60
2018-01-07T00:31:53.315Z,87.40
2018-01-07T00:36:54.879Z,87.30
2018-01-07T00:41:56.372Z,87.10
2018-01-07T00:46:57.866Z,87.30
2018-01-07T00:51:59.399Z,87.70
2018-01-07T00:57:00.994Z,87.20
2018-01-07T01:02:02.605Z,86.90
2018-01-07T01:07:04.982Z,86.30
2018-01-07T01:12:07.210Z,86.30
2018-01-07T01:17:08.765Z,85.40
2018-01-07T01:22:10.250Z,86.20
2018-01-07T01:27:12.722Z,85.40
2018-01-07T01:32:14.278Z,85.50
2018-01-07T01:37:15.832Z,85.50
2018-01-07T01:42:18.326Z,85.30
2018-01-07T01:47:20.625Z,85.40
2018-01-07T01:52:22.330Z,85.40
2018-01-07T01:57:23.878Z,84.80
2018-01-07T02:02:25.404Z,85.40
2018-01-07T02:07:27.072Z,85.20
2018-01-07T02:12:28.635Z,85.80
2018-01-07T02:17:30.144Z,85.30
2018-01-07T02:22:31.792Z,85.10
2018-01-07T02:27:34.050Z,85.30
2018-01-07T02:32:35.624Z,85.20
2018-01-07T02:37:37.129Z,85.60
2018-01-07T02:42:38.623Z,85.30
2018-01-07T02:47:40.259Z,85.40
2018-01-07T02:52:41.793Z,85.70
2018-01-07T02:57:43.260Z,86.70
2018-01-07T03:02:45.712Z,86.90
2018-01-07T03:07:48.072Z,87.20
2018-01-07T03:12:49.574Z,87.20
2018-01-07T03:17:51.100Z,86.80
2018-01-07T03:22:53.372Z,88.00
2018-01-07T03:27:55.638Z,87.10
2018-01-07T03:32:57.184Z,86.40
2018-01-07T03:37:58.753Z,86.30
2018-01-07T03:43:00.488Z,86.40
2018-01-07T03:48:02.026Z,86.10
2018-01-07T03:53:03.551Z,86.00
2018-01-07T03:58:05.884Z,85.30
2018-01-07T04:03:08.210Z,84.80
2018-01-07T04:08:09.758Z,84.70
2018-01-07T04:13:12.052Z,85.00
2018-01-07T04:18:14.362Z,84.50
2018-01-07T04:23:15.873Z,84.50
2018-01-07T04:28:17.385Z,83.80
2018-01-07T04:33:19.059Z,84.20
2018-01-07T04:38:20.578Z,84.00
2018-01-07T04:43:22.150Z,84.10
2018-01-07T04:48:23.698Z,83.90
2018-01-07T04:53:25.277Z,84.50
2018-01-07T04:58:26.865Z,84.40
2018-01-07T05:03:29.124Z,84.50
2018-01-07T05:08:30.706Z,84.50
2018-01-07T05:13:32.236Z,84.60
2018-01-07T05:18:33.817Z,84.80
2018-01-07T05:23:35.442Z,85.60
2018-01-07T05:28:37.010Z,85.50
2018-01-07T05:33:38.536Z,85.70
2018-01-07T05:38:40.067Z,85.80
2018-01-07T05:43:41.603Z,85.40
2018-01-07T05:48:43.989Z,85.80
2018-01-07T05:53:46.369Z,85.40
2018-01-07T05:58:48.698Z,85.40
2018-01-07T06:03:50.287Z,85.30
2018-01-07T06:08:51.793Z,85.00
2018-01-07T06:13:54.044Z,84.80
2018-01-07T06:18:55.679Z,84.70
2018-01-07T06:23:57.216Z,84.20
2018-01-07T06:28:59.481Z,84.10
2018-01-07T06:34:00.989Z,84.10
2018-01-07T06:39:02.544Z,84.20
2018-01-07T06:44:04.943Z,83.80
2018-01-07T06:49:06.476Z,83.70
2018-01-07T06:54:07.981Z,83.40
2018-01-07T06:59:09.541Z,83.60
2018-01-07T07:04:11.108Z,83.20
2018-01-07T07:09:12.663Z,83.60
2018-01-07T07:14:14.924Z,83.50
2018-01-07T07:19:16.998Z,83.50
2018-01-07T07:24:18.517Z,83.20
2018-01-07T07:29:20.139Z,82.80
2018-01-07T07:34:21.671Z,82.30
2018-01-07T07:39:23.243Z,82.70
2018-01-07T07:44:24.764Z,81.90
2018-01-07T07:49:27.890Z,81.30
2018-01-07T07:54:29.496Z,81.30
2018-01-07T07:59:30.989Z,81.80
2018-01-07T08:04:32.578Z,81.40
2018-01-07T08:09:34.855Z,81.40
2018-01-07T08:14:36.368Z,81.40
2018-01-07T08:19:37.893Z,80.80
2018-01-07T08:24:40.214Z,80.80
2018-01-07T08:29:41.828Z,80.80
2018-01-07T08:34:43.470Z,80.70
2018-01-07T08:39:45.045Z,80.00
2018-01-07T08:44:46.583Z,79.70
2018-01-07T08:49:48.112Z,79.00
2018-01-07T08:54:49.643Z,79.60
2018-01-07T08:59:51.408Z,79.30
2018-01-07T09:04:52.976Z,78.80
2018-01-07T09:09:54.498Z,77.70
2018-01-07T09:14:56.799Z,78.00
2018-01-07T09:19:58.338Z,77.80
2018-01-07T09:24:59.885Z,77.60
2018-01-07T09:30:01.473Z,78.00
2018-01-07T09:35:03.024Z,78.50
2018-01-07T09:40:04.629Z,77.00
2018-01-07T09:45:06.933Z,76.10
2018-01-07T09:50:08.485Z,76.10
2018-01-07T09:55:10.008Z,76.80
2018-01-07T10:00:11.558Z,76.10
2018-01-07T10:05:13.301Z,76.30
2018-01-07T10:10:16.246Z,75.70
2018-01-07T10:15:17.785Z,75.70
2018-01-07T10:20:19.314Z,75.60
2018-01-07T10:25:20.883Z,76.30
2018-01-07T10:30:22.480Z,75.50
2018-01-07T10:35:23.989Z,75.60
2018-01-07T10:40:25.581Z,75.60
2018-01-07T10:45:27.113Z,75.10
2018-01-07T10:50:28.665Z,74.80
2018-01-07T10:55:30.299Z,75.00
2018-01-07T11:00:38.776Z,74.60
2018-01-07T11:05:40.420Z,74.60
2018-01-07T11:10:42.021Z,74.70
2018-01-07T11:15:43.517Z,75.20
2018-01-07T11:20:45.223Z,74.10
2018-01-07T11:25:47.533Z,74.30
2018-01-07T11:30:49.241Z,74.30
2018-01-07T11:35:50.800Z,73.90
2018-01-07T11:40:52.362Z,74.20
2018-01-07T11:45:53.883Z,72.70
2018-01-07T11:50:56.232Z,74.30
2018-01-07T11:55:57.778Z,74.10
2018-01-07T12:00:59.527Z,73.70
2018-01-07T12:06:01.082Z,73.40
2018-01-07T12:11:02.657Z,73.40
2018-01-07T12:16:04.182Z,72.10
2018-01-07T12:21:05.725Z,73.50
2018-01-07T12:26:07.339Z,74.50
2018-01-07T12:31:08.844Z,73.10
2018-01-07T12:36:10.388Z,73.30
2018-01-07T12:41:12.062Z,72.90
2018-01-07T12:46:14.382Z,72.80
2018-01-07T12:51:16.108Z,72.70
2018-01-07T12:56:18.417Z,73.00
2018-01-07T13:01:20.031Z,72.90
2018-01-07T13:06:21.556Z,72.50
2018-01-07T13:11:23.178Z,73.70
2018-01-07T13:16:24.735Z,73.10
2018-01-07T13:21:26.364Z,73.10
2018-01-07T13:26:27.953Z,72.90
2018-01-07T13:31:30.388Z,72.70
2018-01-07T13:36:32.630Z,72.80
2018-01-07T13:41:34.196Z,72.50
2018-01-07T13:46:35.728Z,72.90
2018-01-07T13:51:38.006Z,71.50
2018-01-07T13:56:40.254Z,72.90
2018-01-07T14:01:41.780Z,72.90
2018-01-07T14:06:43.347Z,71.80
2018-01-07T14:11:44.837Z,72.00
2018-01-07T14:16:46.364Z,72.80
2018-01-07T14:21:48.689Z,72.30
2018-01-07T14:26:50.304Z,72.30
2018-01-07T14:31:52.561Z,73.60
2018-01-07T14:36:54.088Z,73.60
2018-01-07T14:41:55.789Z,72.60
2018-01-07T14:46:57.352Z,73.50
2018-01-07T14:51:58.944Z,74.50
2018-01-07T14:57:00.612Z,73.60
2018-01-07T15:02:02.148Z,73.60
2018-01-07T15:07:03.845Z,74.60
2018-01-07T15:12:05.452Z,74.20
2018-01-07T15:17:07.724Z,74.80
2018-01-07T15:22:09.350Z,74.60
2018-01-07T15:27:10.867Z,75.00
2018-01-07T15:32:13.169Z,75.70
2018-01-07T15:37:14.698Z,76.40
2018-01-07T15:42:16.197Z,75.90
2018-01-07T15:47:18.468Z,75.80
2018-01-07T15:52:20.006Z,75.90
2018-01-07T15:57:21.558Z,75.20
2018-01-07T16:02:23.190Z,75.40
2018-01-07T16:07:24.856Z,75.50
2018-01-07T16:12:27.237Z,74.80
2018-01-07T16:17:29.519Z,75.10
2018-01-07T16:22:31.161Z,75.00
2018-01-07T16:27:32.679Z,74.40
2018-01-07T16:32:34.239Z,74.60
2018-01-07T16:37:37.112Z,75.50
2018-01-07T16:42:38.649Z,75.50
2018-01-07T16:47:40.229Z,75.50
2018-01-07T16:52:41.841Z,76.50
2018-01-07T16:57:44.141Z,75.20
2018-01-07T17:02:45.768Z,75.10
2018-01-07T17:07:47.378Z,75.10
2018-01-07T17:12:48.888Z,74.60
2018-01-07T17:17:50.455Z,75.20
2018-01-07T17:22:51.971Z,74.00
2018-01-07T17:27:54.270Z,73.70
2018-01-07T17:32:55.858Z,73.70
2018-01-07T17:37:57.383Z,73.70
2018-01-07T17:42:59.663Z,73.90
2018-01-07T17:48:02.089Z,74.10
2018-01-07T17:53:03.596Z,73.40
2018-01-07T17:58:05.127Z,72.90
2018-01-07T18:03:06.794Z,73.20
2018-01-07T18:08:08.374Z,72.90
2018-01-07T18:13:09.916Z,73.30
2018-01-07T18:18:11.581Z,73.60
2018-01-07T18:23:13.884Z,73.60
2018-01-07T18:28:15.433Z,73.70
2018-01-07T18:33:17.664Z,74.10
2018-01-07T18:38:19.367Z,73.30
2018-01-07T18:43:20.945Z,74.20
2018-01-07T18:48:30.160Z,73.80
2018-01-07T18:53:31.743Z,73.80
2018-01-07T18:58:33.317Z,73.10
2018-01-07T19:03:35.020Z,73.50
2018-01-07T19:08:36.551Z,73.60
2018-01-07T19:13:38.062Z,73.30
2018-01-07T19:18:39.580Z,73.20
2018-01-07T19:23:41.239Z,73.30
2018-01-07T19:28:42.970Z,73.70
2018-01-07T19:33:44.592Z,73.70
2018-01-07T19:38:46.796Z,73.90
2018-01-07T19:43:48.441Z,73.90
2018-01-07T19:48:50.368Z,73.30
2018-01-07T19:53:52.178Z,74.00
2018-01-07T19:58:54.772Z,73.50
2018-01-07T20:03:57.431Z,73.60
2018-01-07T20:08:58.994Z,73.50
2018-01-07T20:14:00.802Z,73.40
2018-01-07T20:19:03.180Z,74.00
2018-01-07T20:24:04.778Z,73.90
2018-01-07T20:29:06.621Z,73.80
2018-01-07T20:34:08.360Z,73.80
2018-01-07T20:39:09.940Z,73.50
2018-01-07T20:44:11.502Z,73.40
2018-01-07T20:49:13.847Z,73.80
2018-01-07T20:54:15.399Z,73.80
2018-01-07T20:59:16.953Z,74.10
2018-01-07T21:04:18.475Z,74.50
2018-01-07T21:09:20.780Z,76.20
2018-01-07T21:14:23.065Z,74.50
2018-01-07T21:19:25.668Z,74.70
2018-01-07T21:24:27.216Z,74.70
2018-01-07T21:29:36.623Z,74.90
2018-01-07T21:34:38.155Z,74.80
2018-01-07T21:39:39.707Z,75.30
2018-01-07T21:44:42.060Z,75.00
2018-01-07T21:49:43.617Z,75.00
2018-01-07T21:54:45.140Z,75.10
2018-01-07T22:15:53.670Z,74.90
2018-01-07T22:20:55.312Z,75.50
2018-01-07T22:25:56.889Z,75.20
2018-01-07T22:30:58.363Z,75.30
2018-01-07T22:36:00.718Z,74.80
2018-01-07T22:41:02.364Z,74.80
2018-01-07T22:46:03.873Z,75.40
2018-01-07T22:51:05.397Z,74.70
2018-01-07T22:56:06.959Z,74.80
2018-01-07T23:01:08.550Z,75.10
2018-01-07T23:06:10.076Z,74.80
2018-01-07T23:11:11.704Z,74.70
2018-01-07T23:16:13.273Z,74.50
2018-01-07T23:21:14.817Z,74.70
2018-01-07T23:26:16.573Z,75.10
2018-01-07T23:31:18.163Z,74.90
2018-01-07T23:36:19.720Z,74.80
2018-01-07T23:41:22.160Z,74.50
2018-01-07T23:46:24.442Z,74.50
2018-01-07T23:51:26.060Z,74.50
2018-01-07T23:56:27.603Z,74.40
